Time;durP1;ratioP1;P1;durP2;ratioP2;P2;SDS_P1;SDS_P2;PMS_P1;PMS_P2;Temp;Humidity;BMP_temperature;BMP_pressure;BME280_temperature;BME280_humidity;BME280_pressure;Samples;Min_cycle;Max_cycle;Signal;HPM_P1;HPM_P2
2023/01/11 00:00:10;;;;;;;8.02;5.78;;;8.10;99.90;;;;;;4967098;28;20109;-59
2023/01/11 00:02:36;;;;;;;6.40;5.65;;;7.40;99.90;;;;;;4967711;28;20049;-59
2023/01/11 00:05:02;;;;;;;4.75;4.07;;;8.10;99.90;;;;;;4967385;28;20467;-59
2023/01/11 00:07:28;;;;;;;6.50;5.32;;;7.50;99.90;;;;;;4967641;28;20706;-59
2023/01/11 00:09:54;;;;;;;6.70;5.60;;;7.40;99.90;;;;;;4968194;28;20426;-59
2023/01/11 00:12:19;;;;;;;6.45;4.13;;;7.40;99.90;;;;;;4966852;28;20063;-59
2023/01/11 00:14:45;;;;;;;3.97;3.00;;;8.20;99.90;;;;;;4968118;28;20043;-60
2023/01/11 00:17:11;;;;;;;6.72;6.03;;;7.90;99.90;;;;;;4968075;28;20047;-59
2023/01/11 00:19:36;;;;;;;6.40;4.95;;;8.20;99.90;;;;;;4966916;28;20050;-59
2023/01/11 00:22:03;;;;;;;5.75;3.75;;;7.70;99.90;;;;;;4966251;28;20445;-59
2023/01/11 00:24:29;;;;;;;6.82;4.75;;;8.30;99.90;;;;;;4968078;28;20822;-58
2023/01/11 00:26:55;;;;;;;6.72;5.55;;;8.30;99.90;;;;;;4967595;28;20081;-59
2023/01/11 00:29:21;;;;;;;5.45;4.90;;;8.30;99.90;;;;;;4967500;28;20043;-59
2023/01/11 00:31:46;;;;;;;6.30;5.43;;;8.40;99.90;;;;;;4966078;28;20086;-60
2023/01/11 00:34:12;;;;;;;4.15;3.22;;;8.10;99.90;;;;;;4967473;28;20078;-59
2023/01/11 00:36:38;;;;;;;6.13;5.22;;;7.90;99.90;;;;;;4965667;28;20047;-59
2023/01/11 00:39:03;;;;;;;5.82;3.60;;;8.30;99.90;;;;;;4967039;28;20050;-58
2023/01/11 00:49:43;;;;;;;6.30;5.10;;;8.00;99.90;;;;;;4966774;28;20054;-59
2023/01/11 00:52:09;;;;;;;5.10;4.55;;;8.10;99.90;;;;;;4967150;28;20053;-59
2023/01/11 00:54:38;;;;;;;4.78;3.17;;;8.30;99.90;;;;;;4967166;28;20406;-59
2023/01/11 00:57:06;;;;;;;5.15;3.25;;;8.50;99.90;;;;;;4966081;28;20145;-58
2023/01/11 00:59:33;;;;;;;4.18;3.30;;;8.70;99.90;;;;;;4966739;28;20077;-59
2023/01/11 01:01:58;;;;;;;4.93;4.03;;;8.20;99.90;;;;;;4967571;28;20133;-60
2023/01/11 01:04:24;;;;;;;3.80;2.97;;;8.10;99.90;;;;;;4967182;28;20090;-59
2023/01/11 01:06:50;;;;;;;3.63;2.58;;;8.00;99.90;;;;;;5005007;28;20046;-59
2023/01/11 01:09:16;;;;;;;5.75;4.65;;;8.60;99.90;;;;;;5006209;28;20033;-59
2023/01/11 01:11:41;;;;;;;6.10;4.75;;;8.80;99.90;;;;;;5006474;28;20061;-60
2023/01/11 01:14:24;;;;;;;4.82;3.55;;;8.00;99.90;;;;;;5005795;28;20049;-60
2023/01/11 01:16:54;;;;;;;3.33;2.85;;;8.10;99.90;;;;;;5005227;28;20041;-60
2023/01/11 01:19:21;;;;;;;5.82;5.03;;;8.10;99.90;;;;;;5004475;28;20034;-59
2023/01/11 01:21:47;;;;;;;5.13;3.25;;;8.30;99.90;;;;;;4980118;28;20129;-60
2023/01/11 01:24:13;;;;;;;3.50;2.63;;;8.90;99.90;;;;;;4966165;28;20057;-60
2023/01/11 01:26:39;;;;;;;4.95;3.35;;;8.90;99.90;;;;;;4965415;28;20051;-59
2023/01/11 01:29:04;;;;;;;4.32;3.60;;;8.50;99.90;;;;;;4965446;28;20058;-60
2023/01/11 01:31:30;;;;;;;5.63;3.72;;;8.80;99.90;;;;;;4965726;28;20512;-60
2023/01/11 01:33:56;;;;;;;5.25;4.03;;;8.50;99.90;;;;;;4966268;28;20039;-59
2023/01/11 01:36:22;;;;;;;5.38;3.75;;;8.30;99.90;;;;;;4964487;28;20137;-59
2023/01/11 01:38:48;;;;;;;6.20;3.40;;;8.30;99.90;;;;;;4966198;28;20121;-60
2023/01/11 01:41:14;;;;;;;4.50;3.55;;;8.80;99.90;;;;;;4966777;28;20047;-60
2023/01/11 01:43:58;;;;;;;6.35;4.60;;;9.10;99.90;;;;;;4965641;28;20074;-60
2023/01/11 01:46:31;;;;;;;3.17;2.08;;;9.00;99.90;;;;;;4965981;28;20053;-60
2023/01/11 01:49:06;;;;;;;4.18;3.38;;;8.40;99.90;;;;;;4966403;28;20041;-60
2023/01/11 01:51:54;;;;;;;3.50;2.58;;;8.50;99.90;;;;;;4964063;28;20459;-60
2023/01/11 01:54:26;;;;;;;3.38;2.60;;;8.40;99.90;;;;;;4965029;28;20134;-60
2023/01/11 01:56:58;;;;;;;5.43;3.95;;;9.10;99.90;;;;;;4966453;28;20057;-59
2023/01/11 01:59:27;;;;;;;3.17;2.30;;;8.60;99.90;;;;;;4966237;28;20046;-59
2023/01/11 02:01:53;;;;;;;3.72;3.08;;;9.00;99.90;;;;;;4965600;28;20246;-60
2023/01/11 02:04:26;;;;;;;3.17;2.17;;;9.10;99.90;;;;;;5056919;23;20100;-60
2023/01/11 02:07:08;;;;;;;3.53;2.58;;;8.90;99.90;;;;;;5025768;28;20057;-60
2023/01/11 02:09:36;;;;;;;3.92;2.90;;;9.00;99.90;;;;;;5023289;28;20197;-60
2023/01/11 02:12:03;;;;;;;5.90;5.00;;;9.20;99.90;;;;;;5023715;28;20404;-60
2023/01/11 02:14:31;;;;;;;5.90;3.10;;;9.00;99.90;;;;;;5023728;28;20514;-60
2023/01/11 02:16:57;;;;;;;3.78;3.20;;;9.30;99.90;;;;;;5023624;28;20045;-60
2023/01/11 02:19:52;;;;;;;4.60;3.17;;;8.60;99.90;;;;;;5023857;28;20077;-60
2023/01/11 02:22:57;;;;;;;4.07;2.45;;;9.20;99.90;;;;;;5011993;28;20045;-61
2023/01/11 02:25:37;;;;;;;4.40;2.67;;;9.20;99.90;;;;;;5023705;28;20583;-59
2023/01/11 02:28:49;;;;;;;5.90;3.90;;;9.20;99.90;;;;;;5023888;28;20041;-60
2023/01/11 02:31:45;;;;;;;5.45;4.43;;;9.00;99.90;;;;;;5018194;28;20064;-60
2023/01/11 02:34:31;;;;;;;3.20;2.13;;;9.20;99.90;;;;;;5023570;28;20125;-59
2023/01/11 02:37:23;;;;;;;4.88;2.70;;;8.90;99.90;;;;;;5027559;28;20045;-60
2023/01/11 02:40:20;;;;;;;5.38;4.03;;;9.20;99.90;;;;;;5008110;28;20045;-61
2023/01/11 02:45:51;;;;;;;;;;;9.40;99.90;;;;;;5030823;28;20052;-61
2023/01/11 02:48:57;;;;;;;4.63;3.60;;;9.20;99.90;;;;;;5031147;28;20054;-60
2023/01/11 02:51:47;;;;;;;4.85;3.92;;;9.60;99.90;;;;;;5029765;28;20111;-60
2023/01/11 02:54:17;;;;;;;3.95;2.53;;;9.60;99.90;;;;;;5028999;28;20389;-59
2023/01/11 02:56:46;;;;;;;5.53;4.20;;;9.60;99.90;;;;;;5029831;28;20053;-60
2023/01/11 02:59:16;;;;;;;3.38;2.42;;;8.90;99.90;;;;;;5030085;28;20037;-60
2023/01/11 03:01:46;;;;;;;4.28;3.60;;;8.90;99.90;;;;;;5029837;28;20048;-60
2023/01/11 03:04:34;;;;;;;3.60;2.67;;;9.30;99.90;;;;;;5030520;28;20127;-60
2023/01/11 03:07:09;;;;;;;6.47;3.15;;;9.00;99.90;;;;;;5029507;28;20060;-60
2023/01/11 03:09:54;;;;;;;5.40;3.75;;;9.40;99.90;;;;;;5031006;28;20044;-60
2023/01/11 03:12:53;;;;;;;3.08;1.70;;;9.20;99.90;;;;;;5029926;28;20510;-59
2023/01/11 03:15:43;;;;;;;5.63;3.65;;;9.10;99.90;;;;;;5029016;28;20099;-60
2023/01/11 03:18:23;;;;;;;3.92;3.22;;;9.70;99.90;;;;;;5029404;28;20455;-59
2023/01/11 03:21:20;;;;;;;5.38;2.95;;;9.50;99.90;;;;;;5023409;28;20057;-60
2023/01/11 03:24:10;;;;;;;2.85;1.83;;;9.50;99.90;;;;;;5012965;28;20051;-60
2023/01/11 03:26:51;;;;;;;4.30;2.83;;;9.70;99.90;;;;;;5010806;28;20448;-59
2023/01/11 03:29:46;;;;;;;2.58;2.00;;;9.20;99.90;;;;;;5010542;28;20128;-60
2023/01/11 03:32:30;;;;;;;3.42;1.95;;;9.80;99.90;;;;;;5009439;28;20412;-60
2023/01/11 03:35:12;;;;;;;4.40;1.90;;;9.80;99.90;;;;;;5010398;28;20038;-59
2023/01/11 03:37:44;;;;;;;4.53;3.08;;;10.00;99.90;;;;;;5008915;28;20050;-60
2023/01/11 03:40:19;;;;;;;2.72;1.83;;;9.30;99.90;;;;;;5010043;28;20192;-59
2023/01/11 03:45:57;;;;;;;3.78;3.10;;;9.50;99.90;;;;;;5010207;28;20050;-60
2023/01/11 03:48:25;;;;;;;3.42;2.55;;;9.80;99.90;;;;;;5005924;28;20492;-60
2023/01/11 03:50:54;;;;;;;3.53;2.50;;;9.60;99.90;;;;;;5005820;28;20096;-61
2023/01/11 03:53:22;;;;;;;4.45;2.95;;;10.00;99.90;;;;;;5007209;28;20134;-58
2023/01/11 03:55:54;;;;;;;5.20;3.10;;;9.40;99.90;;;;;;5006877;28;20053;-61
2023/01/11 03:58:20;;;;;;;2.88;2.17;;;9.50;99.90;;;;;;5021795;28;20496;-60
2023/01/11 04:00:47;;;;;;;4.10;1.92;;;9.50;99.90;;;;;;5006673;28;20040;-60
2023/01/11 04:03:13;;;;;;;3.40;2.50;;;9.90;99.90;;;;;;5005899;28;20456;-60
2023/01/11 04:05:42;;;;;;;3.40;2.60;;;9.40;99.90;;;;;;5004502;28;20093;-60
2023/01/11 04:08:10;;;;;;;2.40;1.42;;;9.80;99.90;;;;;;5006781;28;20054;-60
2023/01/11 04:10:36;;;;;;;2.60;1.90;;;9.70;99.90;;;;;;5021389;28;20042;-61
2023/01/11 04:13:02;;;;;;;3.22;2.08;;;10.00;99.90;;;;;;5006203;28;20045;-60
2023/01/11 04:15:30;;;;;;;2.47;1.52;;;10.10;99.90;;;;;;5007591;28;20531;-61
2023/01/11 04:18:03;;;;;;;3.15;2.38;;;10.10;99.90;;;;;;5006620;28;20053;-61
2023/01/11 04:20:30;;;;;;;3.85;2.30;;;9.50;99.90;;;;;;5007697;28;20053;-60
2023/01/11 04:22:56;;;;;;;2.70;1.65;;;9.90;99.90;;;;;;5015859;28;20056;-60
2023/01/11 04:25:21;;;;;;;4.68;2.25;;;9.60;99.90;;;;;;5005731;28;20408;-60
2023/01/11 04:27:47;;;;;;;3.10;1.98;;;10.10;99.90;;;;;;5006025;28;20110;-60
2023/01/11 04:30:13;;;;;;;3.22;2.15;;;9.80;99.90;;;;;;5006853;28;20046;-60
2023/01/11 04:32:38;;;;;;;3.13;1.90;;;10.10;99.90;;;;;;5006296;28;20056;-60
2023/01/11 04:35:04;;;;;;;1.77;0.98;;;9.90;99.90;;;;;;5005721;28;20154;-59
2023/01/11 04:37:30;;;;;;;2.40;1.20;;;9.80;99.90;;;;;;5005225;28;20046;-60
2023/01/11 04:39:56;;;;;;;1.77;1.17;;;9.80;99.90;;;;;;5006735;28;20048;-60
2023/01/11 04:42:23;;;;;;;1.95;1.10;;;9.50;99.90;;;;;;4988690;28;20050;-59
2023/01/11 04:44:50;;;;;;;1.55;1.10;;;9.50;99.90;;;;;;5007035;28;20034;-60
2023/01/11 04:47:17;;;;;;;2.03;1.20;;;9.90;99.90;;;;;;5005896;28;20081;-59
2023/01/11 04:49:43;;;;;;;1.20;0.60;;;9.50;99.90;;;;;;5006151;28;20052;-60
2023/01/11 04:52:10;;;;;;;1.90;1.00;;;10.10;99.90;;;;;;5003194;28;20128;-59
2023/01/11 04:54:36;;;;;;;1.90;1.38;;;10.30;99.90;;;;;;5006218;28;20045;-59
2023/01/11 04:57:02;;;;;;;2.78;1.33;;;9.60;99.90;;;;;;5005690;28;20048;-59
2023/01/11 04:59:28;;;;;;;3.33;1.58;;;9.80;99.90;;;;;;5004035;28;20403;-60
2023/01/11 05:01:53;;;;;;;2.95;1.80;;;9.70;99.90;;;;;;5006478;28;20519;-58
2023/01/11 05:04:19;;;;;;;4.35;1.80;;;10.30;99.90;;;;;;5005280;28;20103;-60
2023/01/11 05:06:45;;;;;;;4.88;2.15;;;10.30;99.90;;;;;;5004502;28;20060;-59
2023/01/11 05:09:16;;;;;;;3.85;1.85;;;9.60;99.90;;;;;;5005582;28;20519;-59
2023/01/11 05:11:42;;;;;;;4.00;2.60;;;9.70;99.90;;;;;;5005924;28;20038;-59
2023/01/11 05:14:07;;;;;;;5.28;2.80;;;10.10;99.90;;;;;;5005960;28;20616;-60
2023/01/11 05:16:33;;;;;;;4.72;1.98;;;9.80;99.90;;;;;;5005632;28;20077;-60
2023/01/11 05:19:00;;;;;;;7.47;3.17;;;9.70;99.90;;;;;;5006027;28;20046;-59
2023/01/11 05:21:30;;;;;;;8.02;4.30;;;10.10;99.90;;;;;;5013828;28;20104;-60
2023/01/11 05:23:57;;;;;;;7.07;3.00;;;10.00;99.90;;;;;;5007025;28;20046;-58
2023/01/11 05:26:27;;;;;;;6.35;2.10;;;10.20;99.90;;;;;;5006373;28;20136;-59
2023/01/11 05:28:55;;;;;;;5.30;1.60;;;9.30;99.90;;;;;;5004863;28;20052;-60
2023/01/11 05:31:20;;;;;;;8.52;1.98;;;9.90;99.90;;;;;;5004934;28;20054;-60
2023/01/11 05:33:46;;;;;;;5.65;1.33;;;9.10;99.90;;;;;;5005689;28;20096;-60
2023/01/11 05:36:18;;;;;;;6.63;1.50;;;9.60;99.90;;;;;;5004118;28;20057;-59
2023/01/11 05:38:48;;;;;;;5.30;1.42;;;9.40;99.90;;;;;;5004808;28;20439;-60
2023/01/11 05:41:15;;;;;;;6.75;1.38;;;8.80;99.90;;;;;;5005748;28;20045;-58
2023/01/11 05:46:28;;;;;;;9.65;2.05;;;8.80;99.90;;;;;;5005063;28;20137;-60
2023/01/11 05:48:54;;;;;;;7.50;2.08;;;9.20;99.90;;;;;;5005407;28;20125;-60
2023/01/11 05:51:20;;;;;;;9.07;1.98;;;8.80;99.90;;;;;;5004343;28;20054;-60
2023/01/11 05:53:46;;;;;;;7.55;2.15;;;8.70;99.90;;;;;;5005296;28;20041;-60
2023/01/11 05:56:12;;;;;;;12.07;3.15;;;9.00;99.90;;;;;;5005142;28;20113;-60
2023/01/11 05:58:38;;;;;;;13.23;3.40;;;8.90;99.90;;;;;;5006102;28;20045;-60
2023/01/11 06:01:06;;;;;;;12.00;3.20;;;9.00;99.90;;;;;;5004386;28;20128;-59
2023/01/11 06:03:31;;;;;;;12.98;3.10;;;9.70;99.90;;;;;;5004928;28;20049;-59
2023/01/11 06:05:58;;;;;;;12.02;3.25;;;9.60;99.90;;;;;;5003506;28;20400;-60
2023/01/11 06:08:24;;;;;;;15.20;3.53;;;9.50;99.90;;;;;;5005190;28;20041;-60
2023/01/11 06:10:51;;;;;;;10.65;2.45;;;9.80;99.90;;;;;;5003579;28;20049;-60
2023/01/11 06:13:26;;;;;;;12.60;2.80;;;9.20;99.90;;;;;;5003151;28;20050;-60
2023/01/11 06:16:07;;;;;;;11.88;3.22;;;9.30;99.90;;;;;;5003956;28;20502;-60
2023/01/11 06:18:36;;;;;;;12.52;3.58;;;9.90;99.90;;;;;;5004051;28;20830;-60
2023/01/11 06:21:02;;;;;;;17.55;2.75;;;9.20;99.90;;;;;;5008773;28;20167;-61
2023/01/11 06:23:29;;;;;;;13.38;3.05;;;9.20;99.90;;;;;;5018806;28;20046;-60
2023/01/11 06:25:55;;;;;;;18.98;3.13;;;9.20;99.90;;;;;;5004300;28;20037;-60
2023/01/11 06:28:21;;;;;;;18.05;3.10;;;9.60;99.90;;;;;;5004494;28;20049;-59
2023/01/11 06:30:54;;;;;;;14.05;3.30;;;9.40;99.90;;;;;;5004635;28;20080;-60
2023/01/11 06:33:22;;;;;;;15.02;3.30;;;9.90;99.90;;;;;;5003464;28;20050;-60
2023/01/11 06:35:48;;;;;;;18.98;3.63;;;9.90;99.90;;;;;;5003775;28;20164;-60
2023/01/11 06:38:15;;;;;;;15.77;3.47;;;9.20;99.90;;;;;;5004065;28;20069;-60
2023/01/11 06:40:42;;;;;;;16.13;3.55;;;9.90;99.90;;;;;;5004801;28;20042;-60
2023/01/11 06:43:08;;;;;;;16.50;3.47;;;9.20;99.90;;;;;;5004327;28;20049;-60
2023/01/11 06:45:37;;;;;;;16.92;3.58;;;9.90;99.90;;;;;;5004332;28;20050;-60
2023/01/11 06:48:03;;;;;;;18.30;3.65;;;9.30;99.90;;;;;;5003397;28;20054;-60
2023/01/11 06:50:29;;;;;;;24.30;4.45;;;9.90;99.90;;;;;;5004378;28;20046;-59
2023/01/11 06:53:00;;;;;;;22.15;3.67;;;8.50;99.90;;;;;;4986156;28;20049;-60
2023/01/11 06:55:27;;;;;;;13.93;2.95;;;9.20;99.90;;;;;;5003362;28;20065;-60
2023/01/11 06:57:53;;;;;;;20.42;4.43;;;9.40;99.90;;;;;;5004359;28;20042;-60
2023/01/11 07:00:20;;;;;;;17.63;3.90;;;9.40;99.90;;;;;;5015009;28;20612;-60
2023/01/11 07:02:46;;;;;;;22.35;3.65;;;9.90;99.90;;;;;;5021363;28;20064;-59
2023/01/11 07:05:12;;;;;;;22.77;3.70;;;9.40;99.90;;;;;;5022898;28;20068;-60
2023/01/11 07:07:39;;;;;;;24.05;3.55;;;9.10;99.90;;;;;;5023454;28;20061;-60
2023/01/11 07:10:11;;;;;;;18.15;3.78;;;9.80;99.90;;;;;;5023395;28;20048;-60
2023/01/11 07:12:37;;;;;;;21.63;3.78;;;9.90;99.90;;;;;;5022870;28;20374;-61
2023/01/11 07:15:05;;;;;;;20.75;3.85;;;9.20;99.90;;;;;;5024331;28;20052;-61
2023/01/11 07:17:31;;;;;;;18.23;3.88;;;9.70;99.90;;;;;;5023887;28;20049;-59
2023/01/11 07:19:56;;;;;;;17.13;4.57;;;9.70;99.90;;;;;;5020444;28;20045;-59
2023/01/11 07:22:22;;;;;;;24.63;4.22;;;9.20;99.90;;;;;;5015654;28;20125;-61
2023/01/11 07:24:49;;;;;;;18.65;3.72;;;9.10;99.90;;;;;;5007392;28;20503;-59
2023/01/11 07:27:14;;;;;;;22.88;4.30;;;9.10;99.90;;;;;;5006683;28;20046;-60
2023/01/11 07:29:40;;;;;;;17.60;3.70;;;9.60;99.90;;;;;;5007375;28;20042;-59
2023/01/11 07:32:07;;;;;;;22.60;3.78;;;9.60;99.90;;;;;;5007210;28;20069;-60
2023/01/11 07:34:33;;;;;;;23.35;4.20;;;9.80;99.90;;;;;;5007338;28;20046;-59
2023/01/11 07:36:58;;;;;;;22.42;3.85;;;9.60;99.90;;;;;;5006122;28;20042;-60
2023/01/11 07:39:24;;;;;;;18.30;3.90;;;9.70;99.90;;;;;;5006881;28;20041;-59
2023/01/11 07:44:34;;;;;;;19.83;3.65;;;9.80;99.90;;;;;;5007214;28;20053;-60
2023/01/11 07:47:00;;;;;;;13.55;2.83;;;9.60;99.90;;;;;;5007542;28;20049;-59
2023/01/11 07:49:26;;;;;;;16.52;2.70;;;9.60;99.90;;;;;;5006242;28;20042;-61
2023/01/11 07:51:51;;;;;;;15.40;3.50;;;9.20;99.90;;;;;;5007397;28;20131;-60
2023/01/11 07:54:17;;;;;;;16.55;3.10;;;9.60;99.90;;;;;;5017385;28;20468;-60
2023/01/11 07:56:43;;;;;;;18.13;2.88;;;9.00;99.90;;;;;;5017206;28;20583;-60
2023/01/11 07:59:09;;;;;;;14.15;3.00;;;9.60;99.90;;;;;;5017834;28;20088;-61
2023/01/11 08:01:35;;;;;;;15.73;3.13;;;9.40;99.90;;;;;;5025899;28;20053;-60
2023/01/11 08:04:01;;;;;;;18.38;3.30;;;9.60;99.90;;;;;;5026925;28;20053;-60
2023/01/11 08:06:27;;;;;;;15.52;2.70;;;9.50;99.90;;;;;;5026223;28;20411;-60
2023/01/11 08:08:53;;;;;;;14.48;3.22;;;9.30;99.90;;;;;;5026742;28;20037;-61
2023/01/11 08:16:47;;;;;;;17.93;3.63;;;9.00;99.90;;;;;;5025067;28;20048;-60
2023/01/11 08:19:13;;;;;;;17.20;3.28;;;9.70;99.90;;;;;;5026228;28;20786;-61
2023/01/11 08:21:39;;;;;;;14.18;2.78;;;9.10;99.90;;;;;;5019817;28;20033;-60
2023/01/11 08:24:05;;;;;;;17.05;3.38;;;9.50;99.90;;;;;;5007722;28;20095;-60
2023/01/11 08:26:31;;;;;;;25.38;4.22;;;9.20;99.90;;;;;;5006477;28;20439;-60
2023/01/11 08:28:57;;;;;;;21.08;3.72;;;9.70;99.90;;;;;;5006622;28;20053;-60
2023/01/11 08:31:23;;;;;;;20.42;3.65;;;9.60;99.90;;;;;;5005501;28;20057;-61
2023/01/11 08:33:49;;;;;;;14.30;3.80;;;9.10;99.90;;;;;;5005510;28;20081;-61
2023/01/11 08:36:14;;;;;;;17.13;3.55;;;9.00;99.90;;;;;;5005707;28;20092;-61
2023/01/11 08:38:40;;;;;;;14.80;3.53;;;9.70;99.90;;;;;;5009405;28;20225;-60
2023/01/11 08:41:13;;;;;;;17.42;3.67;;;9.00;99.90;;;;;;5008311;28;20053;-61
2023/01/11 08:43:40;;;;;;;19.73;3.72;;;9.70;99.90;;;;;;5006386;28;20117;-61
2023/01/11 08:46:07;;;;;;;15.52;3.42;;;9.00;99.90;;;;;;5006532;28;20048;-61
2023/01/11 08:48:32;;;;;;;20.60;4.15;;;9.70;99.90;;;;;;5005118;28;20062;-60
2023/01/11 08:50:58;;;;;;;17.52;3.25;;;9.40;99.90;;;;;;5005529;28;20184;-61
2023/01/11 08:53:24;;;;;;;14.13;3.45;;;9.20;99.90;;;;;;5005881;28;20077;-61
2023/01/11 08:55:50;;;;;;;19.77;3.58;;;9.60;99.90;;;;;;5005908;28;20042;-61
2023/01/11 08:58:16;;;;;;;18.67;3.28;;;9.00;99.90;;;;;;5005986;28;20524;-61
2023/01/11 09:00:42;;;;;;;14.65;3.03;;;9.10;99.90;;;;;;5005930;28;20126;-60
2023/01/11 09:03:10;;;;;;;11.73;3.00;;;9.60;99.90;;;;;;5006575;28;20524;-60
2023/01/11 09:05:37;;;;;;;16.83;3.90;;;9.10;99.90;;;;;;5005486;28;20108;-60
2023/01/11 09:08:04;;;;;;;14.25;3.25;;;9.00;99.90;;;;;;5005946;28;20042;-61
2023/01/11 09:10:29;;;;;;;14.38;3.42;;;9.20;99.90;;;;;;5005501;28;20081;-61
2023/01/11 09:12:56;;;;;;;15.75;3.53;;;8.90;99.90;;;;;;5005936;28;20080;-60
2023/01/11 09:15:22;;;;;;;12.38;2.70;;;9.10;99.90;;;;;;5005994;28;20041;-61
2023/01/11 09:17:49;;;;;;;15.25;3.13;;;9.40;99.90;;;;;;5005576;28;20394;-61
2023/01/11 09:20:15;;;;;;;13.85;3.20;;;8.70;99.90;;;;;;5007436;28;20491;-60
2023/01/11 09:22:45;;;;;;;14.27;2.90;;;9.10;99.90;;;;;;5014569;28;20042;-61
2023/01/11 09:25:11;;;;;;;13.70;3.17;;;8.80;99.90;;;;;;5005324;28;20054;-60
2023/01/11 09:27:37;;;;;;;16.90;3.08;;;9.20;99.90;;;;;;5005760;28;20040;-60
2023/01/11 09:30:03;;;;;;;12.60;2.55;;;8.70;99.90;;;;;;5005462;28;20455;-60
2023/01/11 09:32:29;;;;;;;13.27;2.70;;;8.80;99.90;;;;;;5005531;28;20049;-60
2023/01/11 09:34:56;;;;;;;11.52;2.72;;;8.60;99.90;;;;;;5004688;28;20476;-61
2023/01/11 09:37:23;;;;;;;20.58;3.50;;;9.10;99.90;;;;;;5005620;28;20444;-60
2023/01/11 09:39:50;;;;;;;8.38;2.25;;;8.30;99.90;;;;;;5005715;28;20042;-61
2023/01/11 09:42:47;;;;;;;10.35;2.25;;;8.50;99.90;;;;;;5004567;28;20126;-61
2023/01/11 09:45:26;;;;;;;11.82;2.80;;;8.40;99.90;;;;;;4999682;28;20080;-63
2023/01/11 09:48:10;;;;;;;15.57;2.72;;;8.20;99.90;;;;;;5005533;28;20054;-63
2023/01/11 09:50:42;;;;;;;79.80;10.40;;;8.60;99.90;;;;;;5019511;28;20443;-62
2023/01/11 09:53:35;;;;;;;64.85;8.13;;;8.80;99.90;;;;;;5005384;28;20068;-63
2023/01/11 09:56:04;;;;;;;248.50;24.60;;;8.60;99.90;;;;;;4998570;28;20063;-63
2023/01/11 09:58:52;;;;;;;71.97;7.78;;;9.20;99.90;;;;;;5005706;28;20034;-63
2023/01/11 10:01:29;;;;;;;221.48;23.92;;;9.30;99.90;;;;;;5005430;28;20053;-62
2023/01/11 10:04:15;;;;;;;14.93;3.10;;;10.10;99.90;;;;;;5005645;28;20068;-63
2023/01/11 10:07:09;;;;;;;13.38;2.20;;;10.80;99.90;;;;;;5005042;28;20377;-63
2023/01/11 10:09:45;;;;;;;15.35;2.53;;;11.00;99.90;;;;;;5020949;28;20058;-63
2023/01/11 10:12:35;;;;;;;14.85;2.53;;;11.40;99.90;;;;;;5005738;28;20060;-63
2023/01/11 10:15:31;;;;;;;13.52;2.25;;;11.30;99.90;;;;;;5005170;28;20073;-63
2023/01/11 10:18:16;;;;;;;9.75;1.83;;;11.40;99.90;;;;;;5004816;28;20050;-63
2023/01/11 10:20:49;;;;;;;13.70;2.53;;;11.50;99.90;;;;;;5006983;28;20057;-63
2023/01/11 10:23:27;;;;;;;12.82;2.30;;;11.40;99.90;;;;;;5011935;28;20125;-63
2023/01/11 10:26:01;;;;;;;15.68;2.70;;;12.00;99.90;;;;;;5002835;28;20216;-62
2023/01/11 10:28:34;;;;;;;11.95;2.28;;;12.00;99.90;;;;;;5004597;28;20400;-63
2023/01/11 10:31:28;;;;;;;6.68;1.83;;;11.80;99.90;;;;;;5004251;28;20050;-63
2023/01/11 10:34:29;;;;;;;10.93;1.95;;;11.70;99.90;;;;;;5004398;28;20316;-62
2023/01/11 10:43:19;;;;;;;6.45;1.25;;;11.80;99.90;;;;;;5003496;28;20454;-63
2023/01/11 10:45:58;;;;;;;7.00;1.63;;;11.40;99.90;;;;;;5005354;28;20504;-63
2023/01/11 10:48:32;;;;;;;9.48;1.88;;;11.90;99.90;;;;;;5003699;28;20107;-63
2023/01/11 10:51:10;;;;;;;14.40;2.05;;;12.00;99.90;;;;;;5003932;28;20053;-63
2023/01/11 10:53:38;;;;;;;7.75;1.52;;;12.20;99.90;;;;;;5003291;28;20088;-62
2023/01/11 10:56:25;;;;;;;10.65;2.05;;;12.30;99.90;;;;;;5004605;28;20596;-63
2023/01/11 10:59:27;;;;;;;8.35;1.70;;;12.00;99.90;;;;;;5008174;28;20401;-63
2023/01/11 11:02:19;;;;;;;9.32;2.13;;;12.10;99.90;;;;;;5007873;28;20053;-63
2023/01/11 11:05:04;;;;;;;7.72;1.77;;;12.10;99.90;;;;;;5008198;28;20065;-63
2023/01/11 11:07:38;;;;;;;;;;;12.00;99.90;;;;;;5008760;28;20423;-63
2023/01/11 11:10:10;;;;;;;12.20;1.70;;;11.70;99.90;;;;;;5008487;28;19921;-63
2023/01/11 11:12:40;;;;;;;8.75;2.13;;;11.80;99.90;;;;;;5006296;28;20296;-63
2023/01/11 11:15:35;;;;;;;8.13;2.25;;;11.40;99.90;;;;;;5007018;28;20049;-63
2023/01/11 11:18:00;;;;;;;7.55;1.65;;;11.20;99.90;;;;;;5008178;28;20408;-63
2023/01/11 11:20:32;;;;;;;9.43;2.00;;;10.90;99.90;;;;;;5009888;28;20034;-63
2023/01/11 11:22:58;;;;;;;141.43;14.70;;;10.60;99.90;;;;;;5016349;28;20042;-63
2023/01/11 11:25:28;;;;;;;20.45;3.08;;;10.30;99.90;;;;;;5007153;28;20038;-63
2023/01/11 11:28:03;;;;;;;10.98;1.95;;;10.10;99.90;;;;;;5022935;28;20050;-63
2023/01/11 11:30:42;;;;;;;6.38;1.55;;;10.20;99.90;;;;;;5007446;28;20088;-63
2023/01/11 11:33:22;;;;;;;9.68;1.73;;;10.40;99.90;;;;;;5008000;28;20140;-63
2023/01/11 11:36:01;;;;;;;9.85;1.55;;;10.20;99.90;;;;;;5007111;28;20100;-63
2023/01/11 11:38:29;;;;;;;10.20;1.92;;;10.30;99.90;;;;;;5007251;28;20041;-63
2023/01/11 11:41:18;;;;;;;10.20;2.20;;;10.00;99.90;;;;;;5007568;28;20412;-63
2023/01/11 11:43:45;;;;;;;8.25;1.60;;;10.10;99.90;;;;;;5007772;28;20117;-63
2023/01/11 11:46:14;;;;;;;9.45;1.80;;;10.10;99.90;;;;;;5007288;28;20050;-63
2023/01/11 11:48:41;;;;;;;14.23;3.03;;;9.80;99.90;;;;;;5006831;28;20038;-62
2023/01/11 11:51:14;;;;;;;15.30;2.53;;;9.90;99.90;;;;;;5006680;28;20052;-62
2023/01/11 11:53:50;;;;;;;12.98;2.30;;;10.00;99.90;;;;;;5007546;28;20444;-63
2023/01/11 11:56:20;;;;;;;9.18;2.15;;;10.10;99.90;;;;;;5007528;28;20046;-63
2023/01/11 11:58:46;;;;;;;9.93;2.45;;;10.10;99.90;;;;;;5007950;28;20038;-63
2023/01/11 12:01:29;;;;;;;10.43;2.53;;;10.00;99.90;;;;;;5007276;28;20041;-63
2023/01/11 12:04:03;;;;;;;12.98;2.42;;;10.30;99.90;;;;;;5007296;28;20069;-63
2023/01/11 12:06:29;;;;;;;8.27;1.85;;;10.30;99.90;;;;;;5006964;28;20151;-64
2023/01/11 12:08:59;;;;;;;13.45;2.90;;;10.10;99.90;;;;;;5005696;28;20049;-63
2023/01/11 12:11:33;;;;;;;12.18;2.40;;;10.50;99.90;;;;;;5022257;28;20133;-63
2023/01/11 12:14:22;;;;;;;13.40;2.35;;;10.60;99.90;;;;;;5005981;28;20046;-62
2023/01/11 12:16:48;;;;;;;14.25;2.50;;;10.90;99.90;;;;;;5006508;28;20038;-63
2023/01/11 12:19:46;;;;;;;11.52;2.45;;;10.80;99.90;;;;;;5005244;28;20073;-62
2023/01/11 12:22:21;;;;;;;8.73;2.00;;;11.20;99.90;;;;;;5016379;28;20046;-63
2023/01/11 12:25:13;;;;;;;12.95;2.60;;;11.10;99.90;;;;;;5006148;28;20045;-63
2023/01/11 12:27:45;;;;;;;15.48;2.85;;;11.50;99.90;;;;;;5000471;28;20058;-63
2023/01/11 12:30:30;;;;;;;10.40;1.58;;;11.60;99.90;;;;;;5020193;28;20151;-64
2023/01/11 12:33:10;;;;;;;8.38;1.50;;;11.20;99.90;;;;;;5001865;28;20046;-64
2023/01/11 12:35:57;;;;;;;13.52;2.70;;;10.90;99.90;;;;;;5020341;28;20045;-63
2023/01/11 12:38:42;;;;;;;10.90;2.33;;;10.70;99.90;;;;;;5023830;28;20146;-64
2023/01/11 12:41:14;;;;;;;11.88;2.30;;;10.60;99.90;;;;;;5025957;28;20056;-64
2023/01/11 12:44:03;;;;;;;14.65;2.35;;;10.60;99.90;;;;;;5024211;28;20204;-64
2023/01/11 12:46:50;;;;;;;10.98;2.10;;;10.60;99.90;;;;;;5025924;28;20374;-64
2023/01/11 12:49:29;;;;;;;9.27;2.10;;;10.70;99.90;;;;;;5024643;28;20061;-64
2023/01/11 12:52:01;;;;;;;10.90;2.22;;;10.60;99.90;;;;;;5023705;28;20049;-64
2023/01/11 12:55:19;;;;;;;16.55;2.90;;;10.80;99.90;;;;;;5025662;28;20037;-64
2023/01/11 12:58:00;;;;;;;12.05;2.47;;;10.70;99.90;;;;;;5008944;28;20496;-70
2023/01/11 13:00:41;;;;;;;50.25;6.45;;;10.60;99.90;;;;;;5023519;28;20049;-64
2023/01/11 13:03:35;;;;;;;14.18;2.92;;;10.30;99.90;;;;;;5024944;28;20054;-64
2023/01/11 13:06:06;;;;;;;15.00;2.92;;;10.30;99.90;;;;;;5024632;28;20041;-64
2023/01/11 13:08:52;;;;;;;9.90;2.13;;;10.20;99.90;;;;;;5023943;28;20073;-63
2023/01/11 13:11:37;;;;;;;12.10;2.92;;;10.10;99.90;;;;;;5026548;28;20056;-63
2023/01/11 13:14:24;;;;;;;14.98;2.88;;;10.00;99.90;;;;;;5026107;28;20041;-63
2023/01/11 13:16:49;;;;;;;15.77;2.90;;;9.90;99.90;;;;;;5025870;28;20205;-64
2023/01/11 13:19:28;;;;;;;17.45;2.55;;;10.00;99.90;;;;;;5024532;28;20536;-63
2023/01/11 13:21:55;;;;;;;17.40;3.45;;;9.90;99.90;;;;;;5016766;28;20072;-64
2023/01/11 13:24:31;;;;;;;13.38;2.33;;;9.90;99.90;;;;;;5005530;28;20064;-65
2023/01/11 13:27:11;;;;;;;13.63;2.97;;;9.90;99.90;;;;;;5006632;28;20045;-64
2023/01/11 13:29:41;;;;;;;14.73;2.83;;;9.80;99.90;;;;;;5005727;28;20437;-63
2023/01/11 13:32:13;;;;;;;12.68;3.10;;;9.70;99.90;;;;;;5006224;28;20099;-63
2023/01/11 13:35:05;;;;;;;13.68;2.72;;;9.80;99.90;;;;;;5005016;28;20373;-64
2023/01/11 13:38:08;;;;;;;13.98;3.25;;;9.70;99.90;;;;;;4996206;28;20096;-65
2023/01/11 13:40:53;;;;;;;11.77;2.60;;;9.70;99.90;;;;;;4983983;28;20496;-64
2023/01/11 13:43:24;;;;;;;;;;;9.80;99.90;;;;;;5004451;28;20129;-64
2023/01/11 13:46:20;;;;;;;10.40;2.17;;;9.80;99.90;;;;;;5002680;28;19927;-64
2023/01/11 13:48:59;;;;;;;15.45;2.67;;;9.70;99.90;;;;;;5002053;28;20050;-65